Time;durP1;ratioP1;P1;durP2;ratioP2;P2;SDS_P1;SDS_P2;PMS_P1;PMS_P2;Temp;Humidity;BMP_temperature;BMP_pressure;BME280_temperature;BME280_humidity;BME280_pressure;Samples;Min_cycle;Max_cycle;Signal;HPM_P1;HPM_P2
2022/08/21 00:01:52;;;;;;;4.53;1.50;;;20.70;54.50;;;;;;5004175;28;20034;-87
2022/08/21 00:04:18;;;;;;;5.38;1.85;;;20.70;55.20;;;;;;5000621;28;20035;-89
2022/08/21 00:06:44;;;;;;;6.03;2.38;;;20.60;54.50;;;;;;5005128;28;20109;-87
2022/08/21 00:09:10;;;;;;;4.22;1.88;;;20.60;54.60;;;;;;4993194;28;20028;-88
2022/08/21 00:11:38;;;;;;;4.10;1.50;;;20.50;54.50;;;;;;4989916;28;20030;-87
2022/08/21 00:14:07;;;;;;;5.78;1.60;;;20.50;54.70;;;;;;4988632;28;20018;-87
2022/08/21 00:16:33;;;;;;;5.05;1.90;;;20.40;54.50;;;;;;5006149;28;20027;-88
2022/08/21 00:19:00;;;;;;;5.80;1.80;;;20.40;54.60;;;;;;4990111;28;20049;-87
2022/08/21 00:21:27;;;;;;;5.13;1.73;;;20.40;54.70;;;;;;4991146;28;20240;-88
2022/08/21 00:23:53;;;;;;;5.13;1.60;;;20.40;54.80;;;;;;4989167;28;20037;-87
2022/08/21 00:26:20;;;;;;;3.65;1.40;;;20.30;54.70;;;;;;4989804;28;20034;-88
2022/08/21 00:28:48;;;;;;;3.45;1.40;;;20.30;54.80;;;;;;4989965;28;20036;-87
2022/08/21 00:31:15;;;;;;;6.15;1.63;;;20.30;54.90;;;;;;4957591;28;20114;-87
2022/08/21 00:33:41;;;;;;;6.68;1.58;;;20.20;54.90;;;;;;5006479;28;20026;-87
2022/08/21 00:36:07;;;;;;;3.85;1.60;;;20.20;55.00;;;;;;4991585;28;20125;-88
2022/08/21 00:38:34;;;;;;;5.80;1.77;;;20.20;55.00;;;;;;4989830;28;20129;-87
2022/08/21 00:41:02;;;;;;;4.97;2.20;;;20.20;55.10;;;;;;4973320;28;20026;-89
2022/08/21 00:43:33;;;;;;;4.45;1.30;;;20.20;55.20;;;;;;5006745;28;20121;-87
2022/08/21 00:46:00;;;;;;;5.00;1.35;;;20.10;55.10;;;;;;5008840;28;20397;-88
2022/08/21 00:48:27;;;;;;;4.00;1.73;;;20.10;55.10;;;;;;4990317;28;20338;-86
2022/08/21 00:51:04;;;;;;;5.18;1.42;;;20.10;55.30;;;;;;5007365;28;20041;-86
2022/08/21 00:53:30;;;;;;;3.53;1.73;;;20.10;55.30;;;;;;4974668;28;20035;-88
2022/08/21 00:55:59;;;;;;;6.57;2.10;;;20.10;55.40;;;;;;5004111;28;20073;-90
2022/08/21 00:58:30;;;;;;;6.25;2.03;;;20.10;55.50;;;;;;4997392;28;20056;-91
2022/08/21 01:00:57;;;;;;;4.18;1.60;;;20.00;55.40;;;;;;5027339;28;20473;-90
2022/08/21 01:03:25;;;;;;;6.68;1.85;;;20.00;55.50;;;;;;5000996;28;20042;-91
2022/08/21 01:05:52;;;;;;;4.05;1.55;;;20.00;55.60;;;;;;4994650;28;20021;-89
2022/08/21 01:08:20;;;;;;;3.95;1.40;;;20.00;55.60;;;;;;5015408;28;20037;-89
2022/08/21 01:10:46;;;;;;;4.07;1.40;;;19.90;55.50;;;;;;4997240;28;20025;-88
2022/08/21 01:13:15;;;;;;;3.17;1.35;;;19.90;55.60;;;;;;5017106;28;20029;-88
2022/08/21 01:15:45;;;;;;;4.20;1.90;;;19.90;55.70;;;;;;5015684;28;20045;-89
2022/08/21 01:18:13;;;;;;;4.65;1.25;;;19.90;55.90;;;;;;5014385;28;20030;-88
2022/08/21 01:20:45;;;;;;;5.30;1.40;;;19.80;55.70;;;;;;5031952;28;20057;-88
2022/08/21 01:23:11;;;;;;;4.83;1.83;;;19.80;55.80;;;;;;5001096;28;20025;-90
2022/08/21 01:25:37;;;;;;;4.90;1.33;;;19.80;55.90;;;;;;5019348;28;20274;-91
2022/08/21 01:28:12;;;;;;;4.90;2.15;;;19.80;55.90;;;;;;5017935;28;20020;-89
2022/08/21 01:30:39;;;;;;;4.90;2.10;;;19.80;56.10;;;;;;4995110;28;20036;-91
2022/08/21 01:33:05;;;;;;;5.28;1.77;;;19.80;56.10;;;;;;5014143;28;20437;-92
2022/08/21 01:35:31;;;;;;;5.38;2.15;;;19.80;56.20;;;;;;5017052;28;20026;-89
2022/08/21 01:37:57;;;;;;;5.07;1.50;;;19.80;56.30;;;;;;4997075;28;20132;-90
2022/08/21 01:40:23;;;;;;;6.68;1.42;;;19.80;56.30;;;;;;4995872;28;20033;-89
2022/08/21 01:42:49;;;;;;;4.45;1.33;;;19.80;56.40;;;;;;4999012;28;20030;-86
2022/08/21 01:45:17;;;;;;;4.78;1.58;;;19.80;56.40;;;;;;5012528;28;20173;-88
2022/08/21 01:47:44;;;;;;;4.03;1.45;;;19.80;56.40;;;;;;5019731;28;20025;-88
2022/08/21 01:50:14;;;;;;;4.88;1.40;;;19.80;56.50;;;;;;5001679;28;20034;-88
2022/08/21 01:52:40;;;;;;;5.07;1.60;;;19.70;56.40;;;;;;4997372;28;20037;-89
2022/08/21 01:55:08;;;;;;;7.18;2.88;;;19.70;56.40;;;;;;4995006;28;20411;-86
2022/08/21 01:57:35;;;;;;;6.38;1.65;;;19.70;56.50;;;;;;5001208;28;20428;-87
2022/08/21 02:00:01;;;;;;;4.60;1.58;;;19.70;56.50;;;;;;5006748;28;20033;-87
2022/08/21 02:02:39;;;;;;;4.97;1.40;;;19.70;56.60;;;;;;5005225;28;20034;-86
2022/08/21 02:05:05;;;;;;;6.10;2.35;;;19.70;56.60;;;;;;5007073;28;20099;-89
2022/08/21 02:07:44;;;;;;;3.47;1.30;;;19.70;56.70;;;;;;4974432;28;20034;-89
2022/08/21 02:10:13;;;;;;;6.53;1.52;;;19.70;56.80;;;;;;5023069;28;20037;-87
2022/08/21 02:12:39;;;;;;;4.15;0.98;;;19.70;56.80;;;;;;4985731;28;20084;-89
2022/08/21 02:15:07;;;;;;;4.57;1.20;;;19.70;56.80;;;;;;5008239;28;20417;-87
2022/08/21 02:17:41;;;;;;;2.55;1.48;;;19.70;56.90;;;;;;5006388;28;20042;-87
2022/08/21 02:20:09;;;;;;;5.53;1.83;;;19.70;57.00;;;;;;5010659;28;20033;-89
2022/08/21 02:22:36;;;;;;;4.97;1.63;;;19.60;56.90;;;;;;5008754;28;20389;-90
2022/08/21 02:25:03;;;;;;;6.03;1.45;;;19.60;56.90;;;;;;4976064;28;20621;-88
2022/08/21 02:27:36;;;;;;;4.50;1.70;;;19.70;57.10;;;;;;5008465;28;20595;-88
2022/08/21 02:30:03;;;;;;;5.60;1.70;;;19.60;57.10;;;;;;4992683;28;20030;-90
2022/08/21 02:32:29;;;;;;;3.97;1.75;;;19.60;57.10;;;;;;4991302;28;20492;-89
2022/08/21 02:34:55;;;;;;;10.35;2.33;;;19.60;57.10;;;;;;5015681;28;20070;-88
2022/08/21 02:37:23;;;;;;;4.45;1.40;;;19.60;57.20;;;;;;5033557;28;20058;-90
2022/08/21 02:39:49;;;;;;;4.55;1.10;;;19.60;57.20;;;;;;5030010;28;20061;-90
2022/08/21 02:42:16;;;;;;;3.70;1.25;;;19.60;57.30;;;;;;5014417;28;20018;-90
2022/08/21 02:44:42;;;;;;;7.68;2.03;;;19.70;57.50;;;;;;5016492;28;20026;-89
2022/08/21 02:47:08;;;;;;;6.68;1.45;;;19.60;57.30;;;;;;5026349;28;20042;-90
2022/08/21 02:49:34;;;;;;;4.03;1.33;;;19.60;57.40;;;;;;5012660;28;20033;-89
2022/08/21 02:52:01;;;;;;;6.10;1.50;;;19.60;57.40;;;;;;5013471;28;20767;-88
2022/08/21 02:54:28;;;;;;;3.70;1.60;;;19.60;57.40;;;;;;4992034;28;20026;-89
2022/08/21 02:56:54;;;;;;;4.72;1.38;;;19.70;57.60;;;;;;5027539;28;20056;-88
2022/08/21 02:59:20;;;;;;;5.43;1.35;;;19.70;57.60;;;;;;4991678;28;20495;-89
2022/08/21 03:01:46;;;;;;;5.57;2.00;;;19.70;57.70;;;;;;5007328;28;20034;-90
2022/08/21 03:04:12;;;;;;;5.40;1.55;;;19.70;57.70;;;;;;5008637;28;20020;-88
2022/08/21 03:06:38;;;;;;;7.78;1.80;;;19.70;57.70;;;;;;5006104;28;20033;-88
2022/08/21 03:09:04;;;;;;;3.85;1.58;;;19.70;57.70;;;;;;4987872;28;20030;-87
2022/08/21 03:11:30;;;;;;;8.65;2.05;;;19.70;57.80;;;;;;5004855;28;20057;-87
2022/08/21 03:13:56;;;;;;;5.35;1.90;;;19.70;57.80;;;;;;4987844;28;20026;-86
2022/08/21 03:16:22;;;;;;;6.63;2.10;;;19.70;57.90;;;;;;4989382;28;20033;-87
2022/08/21 03:18:47;;;;;;;5.15;1.40;;;19.60;57.70;;;;;;5005934;28;20018;-89
2022/08/21 03:21:13;;;;;;;4.00;1.27;;;19.60;57.80;;;;;;5004895;28;20038;-87
2022/08/21 03:23:41;;;;;;;4.53;1.30;;;19.60;57.80;;;;;;5005719;28;20037;-87
2022/08/21 03:26:08;;;;;;;6.25;1.67;;;19.60;57.80;;;;;;4995464;28;20065;-87
2022/08/21 03:28:34;;;;;;;4.38;1.67;;;19.60;57.80;;;;;;4972629;28;20036;-88
2022/08/21 03:31:02;;;;;;;4.57;1.40;;;19.60;57.80;;;;;;5005652;28;20115;-86
2022/08/21 03:33:28;;;;;;;5.43;1.33;;;19.60;57.90;;;;;;5009650;28;20496;-88
2022/08/21 03:36:00;;;;;;;5.47;1.30;;;19.60;58.00;;;;;;5009538;28;20026;-87
2022/08/21 03:38:28;;;;;;;5.97;2.20;;;19.60;58.10;;;;;;4994302;28;20038;-90
2022/08/21 03:40:54;;;;;;;5.20;1.35;;;19.60;58.00;;;;;;5010057;28;20034;-88
2022/08/21 03:43:20;;;;;;;6.40;2.13;;;19.50;57.90;;;;;;5011112;28;20084;-87
2022/08/21 03:45:46;;;;;;;5.70;1.50;;;19.50;57.90;;;;;;4994214;28;20350;-88
2022/08/21 03:48:12;;;;;;;3.88;1.85;;;19.50;58.00;;;;;;5008686;28;20037;-89
2022/08/21 03:50:41;;;;;;;4.05;2.28;;;19.50;58.00;;;;;;4993408;28;20030;-88
2022/08/21 03:53:09;;;;;;;6.22;1.83;;;19.50;58.10;;;;;;4992617;28;20681;-87
2022/08/21 03:55:35;;;;;;;6.30;2.05;;;19.50;58.10;;;;;;5010825;28;20084;-88
2022/08/21 03:58:02;;;;;;;6.90;1.73;;;19.50;58.10;;;;;;5019124;28;20584;-89
2022/08/21 04:00:28;;;;;;;5.25;1.83;;;19.50;58.20;;;;;;5014810;28;20087;-87
2022/08/21 04:02:54;;;;;;;3.88;1.17;;;19.50;58.20;;;;;;5030009;28;20071;-87
2022/08/21 04:05:26;;;;;;;8.05;1.60;;;19.50;58.20;;;;;;5003077;28;20045;-88
2022/08/21 04:07:58;;;;;;;3.42;1.17;;;19.50;58.20;;;;;;4998053;28;20053;-87
2022/08/21 04:10:26;;;;;;;4.72;1.70;;;19.50;58.20;;;;;;5006128;28;20038;-88
2022/08/21 04:12:53;;;;;;;6.70;1.50;;;19.50;58.20;;;;;;5035291;28;20033;-87
2022/08/21 04:15:20;;;;;;;4.88;1.48;;;19.50;58.20;;;;;;5022982;28;20092;-87
2022/08/21 04:17:46;;;;;;;6.25;1.67;;;19.50;58.30;;;;;;5029155;28;20033;-88
2022/08/21 04:20:12;;;;;;;4.95;1.88;;;19.50;58.40;;;;;;5020256;28;20037;-88
2022/08/21 04:22:38;;;;;;;5.20;1.45;;;19.50;58.40;;;;;;5005679;28;20056;-92
2022/08/21 04:25:05;;;;;;;6.93;1.95;;;19.50;58.40;;;;;;5000350;28;20059;-93
2022/08/21 04:27:31;;;;;;;7.60;1.40;;;19.50;58.40;;;;;;5034897;28;20029;-87
2022/08/21 04:29:57;;;;;;;5.32;1.90;;;19.50;58.40;;;;;;5019984;28;20194;-89
2022/08/21 04:32:24;;;;;;;4.72;1.35;;;19.50;58.50;;;;;;5002242;28;20472;-88
2022/08/21 04:34:50;;;;;;;4.53;1.60;;;19.50;58.50;;;;;;5029044;28;20475;-92
2022/08/21 04:37:16;;;;;;;5.78;1.55;;;19.50;58.50;;;;;;5000089;28;20042;-88
2022/08/21 04:39:43;;;;;;;5.45;1.67;;;19.40;58.40;;;;;;5018552;28;20120;-87
2022/08/21 04:42:09;;;;;;;1.95;1.10;;;19.50;58.70;;;;;;5018922;28;20037;-90
2022/08/21 04:44:35;;;;;;;4.97;1.52;;;19.50;58.70;;;;;;5004728;28;20044;-88
2022/08/21 04:47:02;;;;;;;3.53;1.30;;;19.50;58.70;;;;;;5035881;28;20025;-93
2022/08/21 04:49:28;;;;;;;6.40;1.67;;;19.50;58.70;;;;;;5013327;28;20033;-92
2022/08/21 04:51:54;;;;;;;6.72;1.85;;;19.50;58.70;;;;;;5005262;28;20033;-90
2022/08/21 04:54:23;;;;;;;4.45;2.08;;;19.50;58.70;;;;;;5015826;28;20033;-94
2022/08/21 04:57:03;;;;;;;4.47;1.80;;;19.50;58.80;;;;;;5005635;28;20029;-93
2022/08/21 04:59:37;;;;;;;4.75;1.48;;;19.50;58.80;;;;;;5031799;28;20051;-84
2022/08/21 05:02:06;;;;;;;3.90;1.40;;;19.50;58.80;;;;;;5012115;28;20025;-89
2022/08/21 05:04:36;;;;;;;3.33;1.17;;;19.50;58.70;;;;;;5031888;28;20064;-88
2022/08/21 05:07:05;;;;;;;4.57;1.50;;;19.50;58.70;;;;;;5010790;28;20767;-87
2022/08/21 05:09:32;;;;;;;4.57;1.63;;;19.50;58.80;;;;;;5020661;28;20044;-91
2022/08/21 05:12:00;;;;;;;4.47;1.25;;;19.50;58.80;;;;;;5038153;28;20030;-89
2022/08/21 05:14:27;;;;;;;5.32;1.92;;;19.50;58.80;;;;;;5014687;28;20128;-84
2022/08/21 05:16:53;;;;;;;5.30;1.30;;;19.50;58.90;;;;;;5020329;28;20172;-88
2022/08/21 05:19:18;;;;;;;6.28;1.75;;;19.50;58.80;;;;;;5025352;28;20449;-84
2022/08/21 05:21:47;;;;;;;5.15;2.05;;;19.50;58.90;;;;;;5032432;28;20049;-84
2022/08/21 05:24:14;;;;;;;3.70;1.08;;;19.50;58.90;;;;;;5039358;28;20037;-84
2022/08/21 05:26:40;;;;;;;4.05;1.40;;;19.50;58.90;;;;;;5002468;28;20637;-84
2022/08/21 05:29:06;;;;;;;3.60;1.13;;;19.40;58.70;;;;;;5038818;28;20495;-93
2022/08/21 05:31:32;;;;;;;6.60;2.03;;;19.40;58.80;;;;;;5037489;28;20493;-88
2022/08/21 05:33:58;;;;;;;5.63;1.85;;;19.50;58.90;;;;;;5029822;28;20032;-95
2022/08/21 05:36:25;;;;;;;5.00;2.30;;;19.50;58.90;;;;;;5026921;28;20480;-90
2022/08/21 05:38:51;;;;;;;5.05;1.25;;;19.50;58.90;;;;;;5000549;28;20041;-89
2022/08/21 05:41:17;;;;;;;4.60;1.08;;;19.50;58.90;;;;;;5016018;28;20045;-89
2022/08/21 05:43:46;;;;;;;3.92;1.08;;;19.50;58.90;;;;;;5004919;28;20036;-91
2022/08/21 05:46:12;;;;;;;3.63;1.35;;;19.50;59.00;;;;;;5011639;28;20136;-93
2022/08/21 05:48:37;;;;;;;4.28;1.15;;;19.50;59.00;;;;;;5004594;28;20022;-91
2022/08/21 05:51:06;;;;;;;4.70;1.63;;;19.50;58.90;;;;;;5021949;28;20025;-95
2022/08/21 05:53:33;;;;;;;4.18;1.58;;;19.50;59.00;;;;;;5033593;28;20427;-86
2022/08/21 05:55:59;;;;;;;5.57;1.52;;;19.50;59.00;;;;;;5020872;28;20037;-92
2022/08/21 05:58:25;;;;;;;6.03;2.78;;;19.50;59.00;;;;;;5030177;28;20457;-86
2022/08/21 06:00:52;;;;;;;5.10;1.58;;;19.40;58.80;;;;;;5014600;28;20044;-87
2022/08/21 06:03:26;;;;;;;5.75;1.80;;;19.50;59.10;;;;;;5030031;28;20029;-87
2022/08/21 06:05:52;;;;;;;8.60;1.98;;;19.40;59.00;;;;;;5026299;28;20623;-86
2022/08/21 06:08:19;;;;;;;6.07;2.10;;;19.40;59.10;;;;;;5002297;28;20013;-84
2022/08/21 06:10:47;;;;;;;4.95;1.25;;;19.40;59.20;;;;;;5015143;28;20041;-86
2022/08/21 06:13:14;;;;;;;6.35;1.98;;;19.40;59.40;;;;;;5008709;28;20030;-85
2022/08/21 06:15:40;;;;;;;5.32;1.50;;;19.40;59.60;;;;;;5009971;28;20113;-85
2022/08/21 06:18:06;;;;;;;6.70;2.30;;;19.40;59.80;;;;;;5030790;28;20026;-86
2022/08/21 06:20:32;;;;;;;6.53;1.80;;;19.50;60.00;;;;;;5008178;28;20045;-87
2022/08/21 06:22:59;;;;;;;5.75;1.60;;;19.50;60.10;;;;;;4991247;28;20027;-86
2022/08/21 06:25:25;;;;;;;6.15;2.13;;;19.40;60.00;;;;;;5028948;28;20037;-82
2022/08/21 06:27:51;;;;;;;5.32;1.73;;;19.50;60.20;;;;;;5016710;28;20044;-84
2022/08/21 06:30:19;;;;;;;4.97;1.85;;;19.40;60.10;;;;;;5012966;28;20366;-84
2022/08/21 06:32:44;;;;;;;7.70;1.95;;;19.50;60.40;;;;;;5007674;28;20100;-83
2022/08/21 06:35:11;;;;;;;6.47;2.10;;;19.50;60.40;;;;;;5000999;28;20065;-84
2022/08/21 06:37:37;;;;;;;5.72;1.48;;;19.50;60.50;;;;;;5016354;28;20047;-86
2022/08/21 06:40:05;;;;;;;7.60;2.22;;;19.50;60.50;;;;;;5013227;28;20045;-82
2022/08/21 06:42:30;;;;;;;5.82;2.03;;;19.50;60.50;;;;;;5016647;28;20080;-84
2022/08/21 06:44:57;;;;;;;11.38;2.38;;;19.50;60.50;;;;;;5016068;28;20487;-82
2022/08/21 06:47:23;;;;;;;9.57;3.10;;;19.60;60.70;;;;;;5024629;28;20111;-85
2022/08/21 06:49:49;;;;;;;7.43;1.73;;;19.60;60.70;;;;;;5016974;28;20041;-89
2022/08/21 06:52:15;;;;;;;5.85;2.50;;;19.60;60.80;;;;;;5014878;28;20330;-84
2022/08/21 06:54:41;;;;;;;7.22;1.65;;;19.60;60.80;;;;;;4980672;28;20120;-85
2022/08/21 06:57:07;;;;;;;5.22;1.85;;;19.70;60.90;;;;;;5018955;28;20082;-92
2022/08/21 06:59:33;;;;;;;8.85;1.95;;;19.70;60.90;;;;;;5042457;28;20076;-94
2022/08/21 07:01:59;;;;;;;8.93;1.90;;;19.80;61.00;;;;;;5034071;28;20053;-95
2022/08/21 07:04:26;;;;;;;8.05;1.98;;;19.90;61.00;;;;;;5015543;28;20236;-91
2022/08/21 07:06:52;;;;;;;10.52;2.65;;;19.90;60.90;;;;;;5018910;28;20036;-90
2022/08/21 07:09:18;;;;;;;7.10;1.70;;;20.00;60.90;;;;;;5016340;28;20029;-90
2022/08/21 07:11:50;;;;;;;8.73;2.22;;;20.00;60.70;;;;;;5030543;28;20048;-92
2022/08/21 07:14:16;;;;;;;9.70;2.58;;;20.10;60.90;;;;;;5040197;28;20221;-91
2022/08/21 07:16:42;;;;;;;8.73;1.83;;;20.10;60.70;;;;;;5016071;28;20043;-90
2022/08/21 07:19:08;;;;;;;8.65;2.20;;;20.10;60.60;;;;;;5029988;28;20040;-93
2022/08/21 07:21:34;;;;;;;8.07;2.55;;;20.20;60.90;;;;;;5000886;28;20037;-93
2022/08/21 07:24:00;;;;;;;7.50;2.30;;;20.20;60.70;;;;;;5025286;28;20036;-90
2022/08/21 07:26:25;;;;;;;12.50;2.30;;;20.20;60.80;;;;;;5016129;28;20044;-92
2022/08/21 07:28:52;;;;;;;8.07;2.45;;;20.20;60.80;;;;;;5015812;28;20028;-92
2022/08/21 07:31:21;;;;;;;6.90;1.80;;;20.10;60.70;;;;;;4999047;28;20032;-95
2022/08/21 07:33:47;;;;;;;9.77;2.30;;;20.10;60.70;;;;;;5015769;28;20017;-95
2022/08/21 07:36:13;;;;;;;13.02;1.88;;;20.10;60.70;;;;;;5012512;28;20296;-94
2022/08/21 07:38:40;;;;;;;7.05;2.03;;;20.10;60.70;;;;;;5019947;28;20030;-94
2022/08/21 07:41:16;;;;;;;9.40;3.25;;;20.10;60.70;;;;;;5002862;28;20426;-93
2022/08/21 07:43:43;;;;;;;9.82;1.90;;;20.10;60.70;;;;;;5012758;28;20018;-96
2022/08/21 07:46:11;;;;;;;8.98;2.30;;;20.10;60.70;;;;;;5027431;28;20033;-96
2022/08/21 07:48:37;;;;;;;10.65;2.95;;;20.20;60.90;;;;;;5031105;28;20110;-95
2022/08/21 07:51:07;;;;;;;8.77;2.50;;;20.10;60.60;;;;;;4998156;28;20473;-92
2022/08/21 07:53:34;;;;;;;8.68;2.85;;;20.20;60.80;;;;;;4993994;28;20033;-95
2022/08/21 07:56:00;;;;;;;8.93;2.85;;;20.20;60.70;;;;;;5014452;28;20040;-94
2022/08/21 07:58:26;;;;;;;7.18;3.22;;;20.30;60.80;;;;;;5027887;28;20045;-94
2022/08/21 08:00:52;;;;;;;12.13;4.00;;;20.30;60.70;;;;;;4998998;28;20045;-95
2022/08/21 08:03:18;;;;;;;11.68;3.58;;;20.30;60.70;;;;;;5008728;28;20352;-94
2022/08/21 08:05:43;;;;;;;8.90;3.00;;;20.30;60.50;;;;;;5015608;28;20048;-95
2022/08/21 08:08:09;;;;;;;15.48;3.42;;;20.40;60.60;;;;;;4977777;28;20029;-94
2022/08/21 08:10:38;;;;;;;7.00;1.95;;;20.40;60.50;;;;;;5008196;28;20261;-93
2022/08/21 08:13:05;;;;;;;8.27;2.72;;;20.50;60.50;;;;;;5020008;28;20034;-93
2022/08/21 08:15:31;;;;;;;8.35;2.15;;;20.70;60.60;;;;;;5015546;28;20392;-94
2022/08/21 08:17:57;;;;;;;8.23;2.22;;;20.90;60.50;;;;;;5011290;28;20018;-95
2022/08/21 08:20:26;;;;;;;6.55;1.55;;;21.00;60.40;;;;;;5000174;28;20446;-94
2022/08/21 08:22:53;;;;;;;7.25;2.35;;;21.10;60.30;;;;;;5017304;28;20045;-95
2022/08/21 08:25:21;;;;;;;8.40;1.80;;;21.10;60.00;;;;;;4998080;28;20067;-95
2022/08/21 08:27:47;;;;;;;8.43;2.70;;;21.20;60.00;;;;;;4982251;28;20025;-93
2022/08/21 08:30:16;;;;;;;7.80;1.80;;;21.30;59.90;;;;;;5003324;28;20032;-89
2022/08/21 08:32:43;;;;;;;6.72;2.05;;;21.40;59.90;;;;;;4994517;28;20397;-89
2022/08/21 08:35:10;;;;;;;7.38;2.10;;;21.50;59.90;;;;;;4995336;28;20208;-92
2022/08/21 08:37:40;;;;;;;6.07;1.85;;;21.50;59.70;;;;;;5001115;28;20037;-92
2022/08/21 08:40:10;;;;;;;8.20;2.83;;;21.60;59.80;;;;;;5022253;28;20072;-93
2022/08/21 08:42:36;;;;;;;5.20;1.80;;;21.70;59.70;;;;;;4998408;28;20096;-95
2022/08/21 08:45:12;;;;;;;6.53;1.20;;;21.70;59.50;;;;;;5030480;28;20021;-95
2022/08/21 08:47:47;;;;;;;5.40;1.67;;;21.80;59.60;;;;;;4982206;28;20063;-94
2022/08/21 08:50:25;;;;;;;9.63;2.17;;;21.90;59.60;;;;;;5016191;28;20034;-86
2022/08/21 08:53:08;;;;;;;7.32;1.80;;;22.00;59.70;;;;;;5023779;28;20037;-94
2022/08/21 08:55:40;;;;;;;3.45;1.63;;;22.10;59.70;;;;;;5004908;28;20033;-88
2022/08/21 08:58:11;;;;;;;7.03;2.05;;;22.10;60.10;;;;;;5005423;28;20064;-86
2022/08/21 09:00:39;;;;;;;6.43;2.77;;;22.30;59.70;;;;;;4983871;28;20529;-86
2022/08/21 09:03:05;;;;;;;8.35;2.15;;;22.40;59.70;;;;;;4993195;28;20033;-89
2022/08/21 09:05:43;;;;;;;6.85;2.42;;;22.50;59.60;;;;;;5012580;28;20396;-88
2022/08/21 09:08:18;;;;;;;6.85;1.80;;;22.70;59.60;;;;;;4998113;28;20028;-86
2022/08/21 09:11:05;;;;;;;6.63;1.77;;;22.80;59.50;;;;;;5028253;28;20025;-86
2022/08/21 09:13:34;;;;;;;6.82;1.73;;;23.00;59.40;;;;;;5031669;28;20029;-89
2022/08/21 09:16:23;;;;;;;5.88;1.80;;;23.10;59.20;;;;;;5033364;28;20489;-89
2022/08/21 09:18:52;;;;;;;9.35;2.67;;;23.30;59.10;;;;;;5011444;28;20156;-90
2022/08/21 09:21:40;;;;;;;7.88;2.05;;;23.50;59.00;;;;;;5038175;28;20041;-91
2022/08/21 09:24:33;;;;;;;6.07;1.80;;;23.60;58.60;;;;;;4996899;28;20446;-91
2022/08/21 09:27:06;;;;;;;6.22;1.70;;;23.80;58.30;;;;;;4998293;28;20090;-93
2022/08/21 09:29:39;;;;;;;5.40;1.55;;;24.00;58.30;;;;;;5024113;28;20055;-94
2022/08/21 09:32:09;;;;;;;;;;;24.20;58.20;;;;;;5019593;28;20246;-92
2022/08/21 09:34:35;;;;;;;8.55;2.17;;;24.40;58.20;;;;;;5016857;28;19917;-92
2022/08/21 09:37:01;;;;;;;4.93;1.27;;;24.50;58.10;;;;;;5003152;28;20036;-91
2022/08/21 09:39:37;;;;;;;6.00;1.45;;;24.60;57.90;;;;;;4998281;28;20794;-89
2022/08/21 09:42:06;;;;;;;4.88;1.75;;;24.60;57.40;;;;;;5018075;28;20037;-88
2022/08/21 09:44:40;;;;;;;5.57;1.50;;;24.70;57.20;;;;;;5006241;28;20095;-96
2022/08/21 09:47:12;;;;;;;5.95;1.80;;;24.70;56.80;;;;;;5016232;28;20030;-95
2022/08/21 09:49:41;;;;;;;3.73;1.53;;;24.70;56.70;;;;;;5016992;28;20025;-95
2022/08/21 09:52:26;;;;;;;5.30;1.95;;;24.70;56.60;;;;;;5029789;28;20037;-92
2022/08/21 09:54:55;;;;;;;5.30;1.63;;;24.60;56.00;;;;;;5006369;28;20032;-87
2022/08/21 09:57:40;;;;;;;3.97;1.20;;;24.60;56.80;;;;;;4999334;28;20041;-94
2022/08/21 10:00:21;;;;;;;3.67;1.40;;;24.50;56.60;;;;;;5020708;28;20033;-95
2022/08/21 10:02:46;;;;;;;7.35;1.60;;;24.50;55.70;;;;;;5025605;28;20134;-95
2022/08/21 10:05:17;;;;;;;7.13;1.92;;;24.50;55.70;;;;;;5004514;28;20029;-94
2022/08/21 10:07:43;;;;;;;6.78;2.35;;;24.50;55.60;;;;;;4979541;28;20041;-93
2022/08/21 10:10:28;;;;;;;5.57;2.00;;;24.50;55.50;;;;;;5000618;28;20509;-92
2022/08/21 10:13:17;;;;;;;4.82;1.55;;;24.50;55.20;;;;;;5019755;28;20086;-86
2022/08/21 10:15:50;;;;;;;8.05;1.92;;;24.50;54.90;;;;;;5012912;28;20037;-89
2022/08/21 10:18:26;;;;;;;7.43;1.95;;;24.50;54.90;;;;;;5023760;28;20037;-90
2022/08/21 10:21:08;;;;;;;4.35;1.20;;;24.60;54.80;;;;;;5037805;28;20040;-88
2022/08/21 10:23:40;;;;;;;9.52;2.20;;;24.70;54.90;;;;;;4973315;28;20036;-83
2022/08/21 10:26:14;;;;;;;6.22;1.77;;;24.80;55.10;;;;;;4998111;28;20037;-87
2022/08/21 10:28:57;;;;;;;5.25;1.67;;;24.90;55.00;;;;;;5016932;28;20076;-90
2022/08/21 10:31:23;;;;;;;4.40;1.40;;;24.90;54.70;;;;;;5034255;28;20465;-87
2022/08/21 10:33:59;;;;;;;5.18;2.00;;;25.00;54.80;;;;;;5018359;28;20052;-87
2022/08/21 10:36:38;;;;;;;7.63;2.55;;;25.10;54.60;;;;;;5028105;28;20045;-87
2022/08/21 10:39:26;;;;;;;6.18;2.05;;;25.10;54.40;;;;;;5014918;28;20048;-89
2022/08/21 10:42:21;;;;;;;6.63;2.15;;;25.10;54.00;;;;;;4990878;28;20056;-82
2022/08/21 10:45:23;;;;;;;5.60;1.27;;;25.20;54.10;;;;;;5020642;28;20033;-82
2022/08/21 10:47:53;;;;;;;6.85;1.58;;;25.20;53.90;;;;;;5010908;28;20033;-82
2022/08/21 10:50:31;;;;;;;6.85;2.15;;;25.40;54.00;;;;;;5008404;28;20022;-83
2022/08/21 10:53:29;;;;;;;5.45;1.30;;;25.50;53.50;;;;;;4996559;28;20417;-82
2022/08/21 10:56:12;;;;;;;6.88;2.85;;;25.70;53.30;;;;;;5015746;28;20041;-81
2022/08/21 10:58:46;;;;;;;3.95;1.42;;;26.00;53.00;;;;;;5004978;28;20041;-93
2022/08/21 11:01:19;;;;;;;5.50;2.30;;;26.30;52.70;;;;;;5014632;28;20049;-92
2022/08/21 11:03:54;;;;;;;8.48;5.18;;;26.40;52.20;;;;;;5027511;28;20056;-90
2022/08/21 11:06:27;;;;;;;4.25;2.88;;;26.70;51.90;;;;;;5008228;28;20021;-87
2022/08/21 11:09:23;;;;;;;5.68;2.88;;;26.90;51.50;;;;;;4993381;28;20036;-88
2022/08/21 11:12:06;;;;;;;6.05;3.50;;;27.10;51.00;;;;;;4993041;28;20040;-92
2022/08/21 11:14:52;;;;;;;5.78;2.58;;;27.40;50.60;;;;;;5012172;28;20022;-92
2022/08/21 11:17:33;;;;;;;4.10;2.00;;;27.60;50.00;;;;;;5030738;28;20090;-89
2022/08/21 11:20:21;;;;;;;5.93;2.17;;;27.70;50.00;;;;;;5017298;28;20037;-92
2022/08/21 11:22:54;;;;;;;7.05;2.33;;;27.60;49.60;;;;;;5028497;28;20037;-90
2022/08/21 11:25:23;;;;;;;5.10;1.90;;;27.60;49.60;;;;;;5023955;28;20412;-91
2022/08/21 11:27:52;;;;;;;5.53;2.58;;;27.50;49.60;;;;;;5024467;28;20048;-90
2022/08/21 11:30:18;;;;;;;8.20;2.00;;;27.50;49.50;;;;;;5004340;28;20522;-88
2022/08/21 11:32:47;;;;;;;6.82;1.90;;;27.50;49.40;;;;;;5021221;28;20029;-94
2022/08/21 11:35:25;;;;;;;6.72;1.90;;;27.60;49.10;;;;;;5038408;28;20113;-88
2022/08/21 11:38:00;;;;;;;5.20;1.70;;;27.60;48.70;;;;;;5036227;28;20087;-88
2022/08/21 11:40:44;;;;;;;4.35;1.83;;;27.60;48.60;;;;;;5021725;28;20049;-88
2022/08/21 11:43:22;;;;;;;6.15;2.20;;;27.60;48.50;;;;;;4990735;28;20031;-88
2022/08/21 11:46:02;;;;;;;7.25;2.45;;;27.50;48.60;;;;;;5021092;28;20138;-88
2022/08/21 11:48:40;;;;;;;5.82;2.08;;;27.50;48.50;;;;;;5020396;28;20349;-84
2022/08/21 11:51:48;;;;;;;3.85;1.55;;;27.40;48.50;;;;;;5020933;28;20064;-90
2022/08/21 11:54:23;;;;;;;6.72;2.08;;;27.40;48.20;;;;;;5011286;28;20101;-87
2022/08/21 11:56:57;;;;;;;6.72;2.20;;;27.30;48.30;;;;;;5050243;28;20033;-94
2022/08/21 11:59:37;;;;;;;4.97;1.65;;;27.40;48.20;;;;;;5000279;28;20524;-87
2022/08/21 12:02:12;;;;;;;4.30;1.30;;;27.40;47.80;;;;;;5014794;28;20045;-87
2022/08/21 12:04:53;;;;;;;5.40;1.80;;;27.30;47.80;;;;;;5006357;28;20128;-87
2022/08/21 12:07:34;;;;;;;4.97;1.70;;;27.30;47.80;;;;;;5037091;28;20040;-89
2022/08/21 12:10:01;;;;;;;4.65;1.67;;;27.20;47.80;;;;;;5044264;28;20114;-87
2022/08/21 12:12:32;;;;;;;5.47;1.75;;;27.20;47.90;;;;;;5022852;28;20452;-88
2022/08/21 12:15:20;;;;;;;4.82;1.52;;;27.20;47.70;;;;;;5023779;28;20029;-86
2022/08/21 12:18:01;;;;;;;4.45;1.77;;;27.20;47.50;;;;;;5040016;28;20554;-90
2022/08/21 12:20:53;;;;;;;4.13;1.55;;;27.20;47.50;;;;;;5004789;28;20041;-88
2022/08/21 12:23:26;;;;;;;4.03;1.65;;;27.20;47.60;;;;;;5019323;28;20040;-87
2022/08/21 12:26:14;;;;;;;7.00;2.40;;;27.10;47.60;;;;;;5028054;28;20033;-89
2022/08/21 12:28:40;;;;;;;5.80;1.48;;;27.10;47.60;;;;;;5039201;28;20053;-87
2022/08/21 12:31:21;;;;;;;4.45;1.40;;;27.20;47.80;;;;;;5008583;28;20087;-87
2022/08/21 12:34:10;;;;;;;4.85;2.15;;;27.20;47.60;;;;;;5031918;28;20033;-87
2022/08/21 12:36:53;;;;;;;4.30;1.67;;;27.20;47.40;;;;;;5042028;28;20045;-89
2022/08/21 12:39:28;;;;;;;5.93;1.73;;;27.30;48.10;;;;;;5043277;28;20056;-89
2022/08/21 12:42:18;;;;;;;5.82;1.80;;;27.40;47.60;;;;;;5034019;28;20124;-89
2022/08/21 12:44:59;;;;;;;5.72;1.60;;;27.50;47.50;;;;;;5012611;28;20025;-90
2022/08/21 12:47:48;;;;;;;4.63;1.67;;;27.60;48.10;;;;;;5019443;28;20045;-86
2022/08/21 12:50:24;;;;;;;3.00;1.35;;;27.70;47.30;;;;;;5032387;28;20041;-84
2022/08/21 12:53:05;;;;;;;4.63;1.30;;;27.80;47.20;;;;;;5031003;28;20044;-88
2022/08/21 12:55:33;;;;;;;6.13;1.55;;;28.00;47.00;;;;;;4984655;28;20344;-89
2022/08/21 12:58:00;;;;;;;5.97;2.10;;;28.20;47.00;;;;;;5010304;28;20170;-88
2022/08/21 13:00:29;;;;;;;8.55;2.53;;;28.30;46.80;;;;;;4994286;28;20067;-86
2022/08/21 13:02:56;;;;;;;4.82;1.65;;;28.40;46.40;;;;;;5003045;28;20461;-86
2022/08/21 13:05:28;;;;;;;5.45;2.13;;;28.50;46.30;;;;;;5013731;28;20123;-86